Time;durP1;ratioP1;P1;durP2;ratioP2;P2;SDS_P1;SDS_P2;PMS_P1;PMS_P2;Temp;Humidity;BMP_temperature;BMP_pressure;BME280_temperature;BME280_humidity;BME280_pressure;Samples;Min_cycle;Max_cycle;Signal;HPM_P1;HPM_P2
2022/01/18 00:01:27;;;;;;;;;11.50;10.00;;;;;20.63;32.70;103293.72;4994710;28;45231;-50
2022/01/18 00:03:53;;;;;;;;;12.25;11.25;;;;;20.62;32.64;103313.94;4994439;28;46177;-53
2022/01/18 00:06:18;;;;;;;;;11.00;10.00;;;;;20.61;32.70;103313.97;4994701;27;45264;-49
2022/01/18 00:08:44;;;;;;;;;11.25;11.00;;;;;20.59;32.94;103298.19;4994084;28;45789;-53
2022/01/18 00:11:09;;;;;;;;;14.00;12.00;;;;;20.59;32.57;103295.53;4994431;28;45807;-56
2022/01/18 00:13:38;;;;;;;;;14.50;11.25;;;;;20.58;32.71;103301.72;4994159;28;46243;-51
2022/01/18 00:18:33;;;;;;;;;11.50;10.50;;;;;20.53;32.72;103296.50;4994435;28;45251;-50
2022/01/18 00:23:35;;;;;;;;;10.25;10.25;;;;;20.54;32.99;103307.94;4993946;28;45455;-57
2022/01/18 00:26:01;;;;;;;;;12.50;11.50;;;;;20.52;32.75;103293.91;4994140;28;45406;-57
2022/01/18 00:28:29;;;;;;;;;11.50;11.00;;;;;20.52;32.40;103288.66;4994154;28;45409;-50
2022/01/18 00:36:01;;;;;;;;;12.00;9.50;;;;;20.48;32.66;103289.56;4993909;28;45257;-54
2022/01/18 00:38:44;;;;;;;;;12.00;9.50;;;;;20.45;33.17;103269.44;4993976;28;45422;-54
2022/01/18 00:41:10;;;;;;;;;8.75;8.75;;;;;20.46;33.05;103299.25;4994534;28;45859;-52
2022/01/18 00:43:37;;;;;;;;;9.25;8.00;;;;;20.44;32.75;103290.53;4993913;28;45456;-52
2022/01/18 00:46:02;;;;;;;;;9.75;9.00;;;;;20.43;32.85;103268.59;4993832;28;45372;-57
2022/01/18 00:48:32;;;;;;;;;13.25;12.00;;;;;20.41;33.04;103275.63;4993918;28;45473;-56
2022/01/18 00:50:58;;;;;;;;;9.25;9.00;;;;;20.41;32.80;103285.31;4994077;28;45216;-51
2022/01/18 00:53:25;;;;;;;;;9.75;7.00;;;;;20.38;32.70;103279.19;4993837;27;46473;-57
2022/01/18 00:56:05;;;;;;;;;10.50;10.50;;;;;20.37;32.87;103280.09;4994052;28;45926;-57
2022/01/18 00:58:31;;;;;;;;;8.75;8.75;;;;;20.36;32.53;103283.59;4993903;28;45313;-53
2022/01/18 01:00:56;;;;;;;;;10.00;9.50;;;;;20.34;33.04;103274.84;4976494;28;45549;-55
2022/01/18 01:03:22;;;;;;;;;9.50;9.50;;;;;20.32;33.23;103271.41;4993604;28;45478;-50
2022/01/18 01:05:47;;;;;;;;;10.75;9.75;;;;;20.32;32.63;103281.94;4994067;28;45339;-54
2022/01/18 01:08:13;;;;;;;;;10.00;9.00;;;;;20.31;32.81;103280.19;4993687;28;45316;-56
2022/01/18 01:10:38;;;;;;;;;8.00;8.00;;;;;20.28;33.09;103274.97;4993750;28;45457;-54
2022/01/18 01:13:05;;;;;;;;;9.75;9.75;;;;;20.27;33.23;103270.59;4993361;28;45403;-57
2022/01/18 01:15:35;;;;;;;;;8.50;8.25;;;;;20.27;32.84;103278.50;4993510;27;45778;-58
2022/01/18 01:32:29;;;;;;;;;12.25;10.25;;;;;20.15;33.23;103276.94;4993634;28;45288;-53
2022/01/18 01:35:03;;;;;;;;;11.00;9.50;;;;;20.17;33.23;103276.91;4993164;28;46227;-55
2022/01/18 01:45:25;;;;;;;;;12.25;11.25;;;;;20.26;32.82;103281.16;4996470;28;45277;-58
2022/01/18 01:47:53;;;;;;;;;12.00;10.50;;;;;20.31;33.61;103296.00;4996376;28;45323;-58
2022/01/18 01:50:23;;;;;;;;;12.25;11.00;;;;;20.35;32.80;103281.88;4996232;28;45438;-58
2022/01/18 01:52:53;;;;;;;;;12.25;11.00;;;;;20.38;32.97;103287.09;4996516;28;45427;-56
2022/01/18 01:55:19;;;;;;;;;13.00;10.00;;;;;20.44;33.21;103294.03;4995999;28;46172;-55
2022/01/18 01:57:45;;;;;;;;;8.50;8.50;;;;;20.46;32.89;103291.34;4996134;28;45785;-53
2022/01/18 02:00:15;;;;;;;;;15.25;12.00;;;;;20.49;33.02;103293.97;4996134;27;45437;-52
2022/01/18 02:02:41;;;;;;;;;13.00;11.00;;;;;20.52;32.81;103292.13;4996156;28;45311;-53
2022/01/18 02:05:08;;;;;;;;;10.50;9.25;;;;;20.56;33.16;103285.03;4978124;28;46056;-58
2022/01/18 02:07:34;;;;;;;;;10.25;9.25;;;;;20.58;32.72;103296.44;4995667;28;45442;-57
2022/01/18 02:09:59;;;;;;;;;7.00;7.00;;;;;20.61;32.72;103288.50;4978193;28;45423;-57
2022/01/18 02:12:24;;;;;;;;;10.75;9.00;;;;;20.64;32.83;103290.19;4996339;28;45530;-58
2022/01/18 02:14:56;;;;;;;;;12.50;10.00;;;;;20.64;32.84;103288.44;4996018;28;45336;-55
2022/01/18 02:22:53;;;;;;;;;14.25;11.00;;;;;20.68;32.52;103290.13;4996224;28;45277;-58
2022/01/18 02:25:19;;;;;;;;;11.75;10.00;;;;;20.69;32.74;103289.22;4977987;28;47546;-56
2022/01/18 02:27:45;;;;;;;;;9.75;9.50;;;;;20.69;32.32;103286.59;4995475;28;45962;-58
2022/01/18 02:30:11;;;;;;;;;11.50;10.25;;;;;20.70;32.47;103284.84;4995781;28;45801;-56
2022/01/18 02:32:37;;;;;;;;;10.00;10.00;;;;;20.70;32.80;103293.59;4996028;28;45327;-57
2022/01/18 02:35:03;;;;;;;;;9.25;9.25;;;;;20.68;32.42;103284.84;4995579;27;45647;-57
2022/01/18 02:37:29;;;;;;;;;10.75;9.25;;;;;20.68;32.79;103290.13;4995527;28;45947;-51
2022/01/18 02:39:54;;;;;;;;;12.00;12.00;;;;;20.68;32.52;103279.56;4995916;28;45363;-58
2022/01/18 02:42:24;;;;;;;;;13.50;10.75;;;;;20.68;32.41;103274.31;4995684;28;45591;-56
2022/01/18 02:44:50;;;;;;;;;12.50;10.00;;;;;20.68;32.13;103284.84;4995264;28;46352;-55
2022/01/18 02:47:19;;;;;;;;;13.50;10.50;;;;;20.67;32.31;103275.19;4995261;28;45333;-56
2022/01/18 02:49:46;;;;;;;;;8.50;7.25;;;;;20.67;32.59;103267.28;4995524;28;45358;-56
2022/01/18 02:52:11;;;;;;;;;11.25;9.50;;;;;20.64;32.61;103277.91;4995769;27;45509;-58
2022/01/18 02:54:37;;;;;;;;;13.00;9.50;;;;;20.65;31.99;103295.47;4994935;28;45410;-56
2022/01/18 02:57:04;;;;;;;;;14.25;10.00;;;;;20.65;32.48;103268.22;4995208;28;45458;-57
2022/01/18 03:04:49;;;;;;;;;9.50;9.50;;;;;20.60;32.12;103278.84;4995221;28;45296;-58
2022/01/18 03:07:16;;;;;;;;;11.00;11.00;;;;;20.60;32.38;103260.41;4995034;27;45831;-56
2022/01/18 03:09:41;;;;;;;;;11.25;10.00;;;;;20.59;31.92;103266.56;4995076;28;45168;-58
2022/01/18 03:12:08;;;;;;;;;9.00;9.00;;;;;20.57;32.17;103260.44;4995344;27;45672;-57
2022/01/18 03:14:34;;;;;;;;;8.50;7.50;;;;;20.58;32.42;103245.53;4994970;28;46958;-57
2022/01/18 03:17:00;;;;;;;;;11.25;9.25;;;;;20.54;32.14;103247.34;4994981;28;46022;-57
2022/01/18 03:19:25;;;;;;;;;9.75;9.00;;;;;20.54;32.24;103244.72;4995422;28;45261;-54
2022/01/18 03:21:53;;;;;;;;;8.25;7.25;;;;;20.53;32.60;103232.44;4995454;27;45390;-54
2022/01/18 03:29:29;;;;;;;;;3.75;2.75;;;;;20.49;32.52;103222.81;4995140;28;45473;-48
2022/01/18 03:31:54;;;;;;;;;12.25;10.25;;;;;20.47;32.33;103229.88;4995442;28;45449;-58
2022/01/18 03:34:20;;;;;;;;;8.00;8.00;;;;;20.46;32.18;103244.84;4994825;28;46610;-57
2022/01/18 03:36:46;;;;;;;;;9.75;9.00;;;;;20.46;32.24;103236.03;4994749;28;45231;-57
2022/01/18 03:39:11;;;;;;;;;9.00;9.00;;;;;20.43;32.51;103231.69;4994773;28;45430;-58
2022/01/18 03:41:37;;;;;;;;;8.75;8.75;;;;;20.44;32.44;103243.13;4995050;28;45560;-49
2022/01/18 03:44:02;;;;;;;;;9.25;8.75;;;;;20.41;32.73;103230.00;4994610;28;46215;-56
2022/01/18 03:46:28;;;;;;;;;11.50;9.75;;;;;20.40;32.59;103226.47;4994908;28;45316;-57
2022/01/18 03:48:54;;;;;;;;;9.25;9.25;;;;;20.37;32.18;103237.94;4994678;28;45373;-52
2022/01/18 03:51:20;;;;;;;;;9.00;9.00;;;;;20.36;32.50;103238.84;4995040;27;45343;-54
2022/01/18 03:53:45;;;;;;;;;10.00;9.75;;;;;20.35;32.13;103229.19;4994409;28;45468;-54
2022/01/18 03:56:11;;;;;;;;;8.50;7.75;;;;;20.34;32.62;103240.63;4994462;27;45424;-51
2022/01/18 03:58:36;;;;;;;;;9.00;8.00;;;;;20.30;32.25;103231.06;4994628;27;45870;-53
2022/01/18 04:01:03;;;;;;;;;8.50;8.00;;;;;20.31;32.93;103226.63;4994771;28;45351;-55
2022/01/18 04:03:29;;;;;;;;;9.00;6.50;;;;;20.29;32.50;103224.03;4994750;28;45596;-55
2022/01/18 04:05:56;;;;;;;;;9.00;9.00;;;;;20.30;32.44;103240.69;4993517;28;45205;-56
2022/01/18 04:08:22;;;;;;;;;8.75;6.75;;;;;20.31;31.93;103230.16;4994416;28;45244;-51
2022/01/18 04:10:48;;;;;;;;;6.25;3.75;;;;;20.33;32.80;103230.13;4977057;28;45348;-55
2022/01/18 04:13:13;;;;;;;;;8.00;7.00;;;;;20.34;32.26;103226.59;4994296;28;46542;-54
2022/01/18 04:15:39;;;;;;;;;9.50;7.75;;;;;20.39;32.79;103224.78;4994520;28;45361;-56
2022/01/18 04:26:04;;;;;;;;;6.75;6.75;;;;;20.54;32.66;103223.63;4994549;28;45992;-58
2022/01/18 04:28:37;;;;;;;;;9.75;8.00;;;;;20.55;32.52;103217.47;4994428;28;45348;-58
2022/01/18 04:31:04;;;;;;;;;9.50;7.75;;;;;20.59;32.58;103221.78;4994381;28;45386;-55
2022/01/18 04:33:30;;;;;;;;;7.25;6.00;;;;;20.64;32.56;103224.31;4994373;28;46427;-56
2022/01/18 04:35:55;;;;;;;;;7.00;7.00;;;;;20.67;32.16;103229.53;4994105;28;45190;-55
2022/01/18 04:38:20;;;;;;;;;12.25;7.50;;;;;20.68;32.20;103232.13;4994110;28;45385;-55
2022/01/18 04:40:47;;;;;;;;;6.25;6.25;;;;;20.70;32.40;103232.97;4994304;27;45549;-56
2022/01/18 04:48:45;;;;;;;;;6.75;6.75;;;;;20.75;31.93;103217.13;4994094;28;45417;-56
2022/01/18 04:51:12;;;;;;;;;7.00;7.00;;;;;20.74;31.85;103212.75;4994226;28;45302;-56
2022/01/18 04:53:41;;;;;;;;;8.00;7.00;;;;;20.77;32.32;103225.03;4993870;28;45559;-57
2022/01/18 04:56:13;;;;;;;;;4.00;4.00;;;;;20.78;32.03;103210.94;4993855;28;45177;-57
2022/01/18 04:58:39;;;;;;;;;7.00;6.25;;;;;20.79;31.97;103217.94;4993833;28;45433;-56
2022/01/18 05:01:07;;;;;;;;;10.00;7.00;;;;;20.78;32.10;103222.34;4976507;28;45245;-57
2022/01/18 05:03:33;;;;;;;;;7.00;6.25;;;;;20.77;31.84;103209.22;4993937;27;46773;-55
2022/01/18 05:06:03;;;;;;;;;6.00;5.25;;;;;20.78;31.98;103222.34;4994030;27;45794;-55
2022/01/18 05:08:29;;;;;;;;;7.50;7.50;;;;;20.78;32.44;103221.50;4992914;28;45561;-55
2022/01/18 05:10:57;;;;;;;;;10.00;8.75;;;;;20.78;31.97;103218.84;4993749;28;45232;-52
2022/01/18 05:15:58;;;;;;;;;10.25;8.50;;;;;20.77;32.32;103219.75;4993586;28;45189;-53
2022/01/18 05:21:11;;;;;;;;;8.50;7.50;;;;;20.75;31.84;103218.91;5000389;28;45234;-53
2022/01/18 05:23:37;;;;;;;;;11.00;8.25;;;;;20.75;32.14;103226.81;4999764;28;47294;-50
2022/01/18 05:26:03;;;;;;;;;8.00;7.25;;;;;20.73;31.75;103225.94;5000189;27;45431;-52
2022/01/18 05:28:28;;;;;;;;;10.25;8.75;;;;;20.72;32.05;103224.19;4982384;28;45277;-53
2022/01/18 05:30:53;;;;;;;;;6.50;6.50;;;;;20.72;31.88;103221.56;5000174;27;45268;-53
2022/01/18 05:33:21;;;;;;;;;8.00;8.00;;;;;20.71;32.25;103225.97;4999805;28;46051;-55
2022/01/18 05:35:47;;;;;;;;;7.50;7.50;;;;;20.69;31.96;103218.06;4999730;27;45852;-56
2022/01/18 05:38:12;;;;;;;;;10.00;8.25;;;;;20.69;32.14;103211.94;4999861;28;45343;-55
2022/01/18 05:40:38;;;;;;;;;9.75;7.00;;;;;20.68;32.24;103211.06;5000010;28;45352;-58
2022/01/18 05:43:04;;;;;;;;;8.50;7.00;;;;;20.66;31.86;103207.59;4999953;27;45361;-57
2022/01/18 05:45:29;;;;;;;;;8.00;7.00;;;;;20.65;32.32;103205.88;4999644;28;46018;-56
2022/01/18 05:47:54;;;;;;;;;7.25;7.00;;;;;20.64;32.01;103197.97;4999741;28;45428;-55
2022/01/18 05:50:20;;;;;;;;;8.25;8.00;;;;;20.63;32.09;103197.13;4999821;28;45657;-58
2022/01/18 05:52:45;;;;;;;;;7.50;6.50;;;;;20.61;32.05;103198.91;4981799;28;47390;-59
2022/01/18 05:55:11;;;;;;;;;8.75;7.50;;;;;20.61;31.95;103204.16;4999597;28;45810;-55
2022/01/18 05:57:38;;;;;;;;;7.00;6.75;;;;;20.58;32.24;103204.22;4999547;28;45779;-54
2022/01/18 06:00:05;;;;;;;;;5.50;5.50;;;;;20.58;32.02;103208.63;4999996;28;45291;-54
2022/01/18 06:02:49;;;;;;;;;7.25;6.75;;;;;20.55;32.07;103204.28;4999373;28;46344;-57
2022/01/18 06:07:59;;;;;;;;;6.00;6.00;;;;;20.52;31.93;103204.34;4999261;28;45327;-52
2022/01/18 06:10:25;;;;;;;;;7.75;5.00;;;;;20.51;32.62;103211.34;4999395;28;45219;-58
2022/01/18 06:12:51;;;;;;;;;8.75;8.00;;;;;20.49;32.06;103209.66;4999023;27;46474;-55
2022/01/18 06:15:17;;;;;;;;;8.75;7.25;;;;;20.47;32.76;103214.97;4999261;28;45382;-53
2022/01/18 06:17:44;;;;;;;;;6.50;6.00;;;;;20.46;32.29;103212.34;4999265;28;45344;-53
2022/01/18 06:20:10;;;;;;;;;9.00;6.75;;;;;20.45;32.16;103210.63;4999344;28;45463;-54
2022/01/18 06:22:35;;;;;;;;;6.50;6.50;;;;;20.42;32.58;103216.78;4999371;27;46524;-57
2022/01/18 06:25:01;;;;;;;;;9.00;8.00;;;;;20.41;32.36;103219.47;4981446;28;45979;-50
2022/01/18 06:27:26;;;;;;;;;12.00;9.75;;;;;20.40;32.61;103215.94;4998701;28;45537;-54
2022/01/18 06:29:52;;;;;;;;;9.75;8.00;;;;;20.41;32.64;103222.09;4995345;28;45612;-54
2022/01/18 06:32:18;;;;;;;;;10.25;8.25;;;;;20.38;32.66;103223.03;4977633;28;45712;-53
2022/01/18 06:34:43;;;;;;;;;6.75;6.75;;;;;20.34;32.71;103216.06;4995527;27;45415;-50
2022/01/18 06:37:09;;;;;;;;;9.00;9.00;;;;;20.36;32.58;103219.53;4995454;28;45338;-58
2022/01/18 06:39:35;;;;;;;;;8.50;7.00;;;;;20.33;32.41;103220.47;4996121;28;45459;-52
2022/01/18 06:42:00;;;;;;;;;8.00;6.75;;;;;20.32;32.74;103218.72;4995325;28;46500;-57
2022/01/18 06:44:26;;;;;;;;;7.00;6.75;;;;;20.35;32.76;103223.06;4995404;27;45716;-54
2022/01/18 06:46:52;;;;;;;;;10.25;6.50;;;;;20.36;32.46;103219.53;4977970;28;45433;-51
2022/01/18 06:49:18;;;;;;;;;8.25;8.25;;;;;20.37;32.28;103229.19;4995636;28;45514;-46
2022/01/18 06:51:43;;;;;;;;;8.00;8.00;;;;;20.39;32.32;103228.25;4977546;28;46311;-57
2022/01/18 06:54:14;;;;;;;;;7.25;6.00;;;;;20.42;32.72;103232.59;4995419;28;45185;-48
2022/01/18 06:56:43;;;;;;;;;5.50;5.25;;;;;20.47;32.56;103237.78;4995397;28;45300;-50
2022/01/18 06:59:09;;;;;;;;;10.25;5.25;;;;;20.50;32.75;103229.84;4995771;27;45560;-50
2022/01/18 07:01:34;;;;;;;;;6.25;6.25;;;;;20.53;32.19;103232.44;4995659;28;45520;-57
2022/01/18 07:03:59;;;;;;;;;7.00;7.00;;;;;20.56;32.32;103227.09;4977550;28;46343;-49
2022/01/18 07:06:25;;;;;;;;;8.75;7.00;;;;;20.60;32.21;103228.78;4977694;28;45339;-57
2022/01/18 07:08:50;;;;;;;;;7.50;7.00;;;;;20.63;32.61;103228.72;4995204;27;45374;-49
2022/01/18 07:11:16;;;;;;;;;7.00;6.00;;;;;20.66;32.17;103227.81;4977396;28;48189;-56
2022/01/18 07:13:42;;;;;;;;;7.25;7.25;;;;;20.68;32.23;103226.00;4994996;28;45390;-50
2022/01/18 07:16:08;;;;;;;;;6.25;6.25;;;;;20.70;32.17;103224.22;4995464;28;45327;-53
2022/01/18 07:18:33;;;;;;;;;8.00;7.00;;;;;20.73;32.31;103226.78;4995143;27;45604;-51
2022/01/18 07:20:59;;;;;;;;;8.25;7.50;;;;;20.73;32.13;103218.03;4994924;27;45302;-57
2022/01/18 07:23:25;;;;;;;;;7.25;6.75;;;;;20.76;32.28;103223.28;4994922;27;45387;-58
2022/01/18 07:25:52;;;;;;;;;6.75;6.00;;;;;20.78;31.95;103226.75;4995181;28;45310;-51
2022/01/18 07:28:18;;;;;;;;;9.75;6.00;;;;;20.80;31.94;103219.66;4994880;27;45482;-55
2022/01/18 07:30:44;;;;;;;;;6.75;6.00;;;;;20.78;31.96;103216.22;4994746;28;46992;-54
2022/01/18 07:33:12;;;;;;;;;6.50;6.00;;;;;20.81;32.17;103216.13;4995030;28;45879;-56
2022/01/18 07:35:38;;;;;;;;;6.00;6.00;;;;;20.81;31.78;103221.41;4995276;28;45382;-53
2022/01/18 07:38:04;;;;;;;;;6.75;5.75;;;;;20.81;32.09;103206.47;4995164;28;45592;-57
2022/01/18 07:40:31;;;;;;;;;7.50;7.50;;;;;20.80;31.92;103204.75;4993269;27;46500;-55
2022/01/18 07:43:00;;;;;;;;;1.50;1.50;;;;;20.81;32.23;103208.22;4977095;28;45840;-56
2022/01/18 07:45:26;;;;;;;;;5.00;5.00;;;;;20.81;32.36;103205.59;4994895;28;45478;-56
2022/01/18 07:47:51;;;;;;;;;7.00;6.25;;;;;20.80;31.72;103204.75;4994850;28;45413;-56
2022/01/18 07:50:17;;;;;;;;;8.50;8.50;;;;;20.80;31.97;103204.75;4977026;28;47038;-57
2022/01/18 07:52:42;;;;;;;;;7.25;7.25;;;;;20.79;31.74;103212.66;4976992;28;45450;-55
2022/01/18 07:55:08;;;;;;;;;8.00;6.00;;;;;20.80;31.72;103217.03;4994973;28;45381;-57
2022/01/18 07:57:34;;;;;;;;;9.50;7.00;;;;;20.79;31.82;103215.28;4994999;28;45647;-54
2022/01/18 07:59:59;;;;;;;;;9.50;8.00;;;;;20.78;32.03;103210.94;4994184;28;45308;-58
2022/01/18 08:02:25;;;;;;;;;7.50;7.25;;;;;20.77;32.17;103207.44;4976863;28;45328;-58
2022/01/18 08:04:50;;;;;;;;;7.50;6.50;;;;;20.76;32.06;103210.09;4994694;28;45322;-54
2022/01/18 08:07:16;;;;;;;;;9.00;8.50;;;;;20.77;32.13;103209.22;4994595;28;45324;-56
2022/01/18 08:09:41;;;;;;;;;7.75;7.25;;;;;20.76;31.71;103203.03;4994555;28;45381;-52
2022/01/18 08:12:07;;;;;;;;;8.50;7.00;;;;;20.74;31.65;103193.41;4994482;28;45190;-55
2022/01/18 08:14:34;;;;;;;;;8.25;5.50;;;;;20.72;31.77;103190.81;4994428;28;45411;-56
2022/01/18 08:17:01;;;;;;;;;7.00;5.00;;;;;20.72;31.71;103192.56;4994660;27;45474;-56
2022/01/18 08:19:32;;;;;;;;;6.50;5.25;;;;;20.72;32.00;103196.09;4994199;28;46356;-48
2022/01/18 08:21:58;;;;;;;;;8.75;7.00;;;;;20.69;31.85;103197.00;4976687;28;45852;-51
2022/01/18 08:24:24;;;;;;;;;6.75;5.00;;;;;20.69;31.81;103185.59;4976649;28;45237;-58
2022/01/18 08:26:50;;;;;;;;;6.00;6.00;;;;;20.67;31.82;103188.25;4994493;27;45629;-53
2022/01/18 08:29:15;;;;;;;;;11.25;9.50;;;;;20.66;31.86;103189.16;4994053;28;45628;-56
2022/01/18 08:31:41;;;;;;;;;9.00;7.75;;;;;20.66;31.83;103194.44;4994512;28;45360;-56
2022/01/18 08:34:07;;;;;;;;;7.00;7.00;;;;;20.65;31.99;103190.06;4994272;28;45453;-53
2022/01/18 08:36:33;;;;;;;;;8.00;8.00;;;;;20.63;32.10;103191.84;4994288;28;45339;-53
2022/01/18 08:39:00;;;;;;;;;10.00;7.00;;;;;20.62;32.30;103197.13;4993846;28;46409;-57
2022/01/18 08:41:26;;;;;;;;;6.75;6.75;;;;;20.61;32.41;103190.16;4993946;28;45303;-58
2022/01/18 08:43:51;;;;;;;;;6.50;6.50;;;;;20.59;32.49;103184.88;4994315;28;45245;-55
2022/01/18 08:46:17;;;;;;;;;6.00;6.00;;;;;20.58;32.12;103191.03;4994149;28;45339;-56
2022/01/18 08:48:43;;;;;;;;;7.75;7.75;;;;;20.55;32.03;103184.06;4993992;28;46726;-56
2022/01/18 08:51:08;;;;;;;;;5.50;5.50;;;;;20.56;32.08;103195.47;4993339;27;45285;-58
2022/01/18 08:53:35;;;;;;;;;7.25;6.50;;;;;20.53;32.27;103200.81;4994028;28;45357;-56
2022/01/18 08:56:01;;;;;;;;;0.00;0.00;;;;;20.50;32.27;103187.69;4994254;27;45319;-55
2022/01/18 08:58:27;;;;;;;;;5.25;5.25;;;;;20.52;32.02;103193.81;4993695;28;45749;-53
2022/01/18 09:00:52;;;;;;;;;7.75;7.75;;;;;20.50;31.86;103187.69;4993795;28;45300;-53
2022/01/18 09:03:17;;;;;;;;;9.25;6.50;;;;;20.50;32.27;103182.41;4993870;28;45428;-55
2022/01/18 09:05:45;;;;;;;;;6.00;6.00;;;;;20.48;32.23;103185.09;4994267;28;45245;-47
2022/01/18 09:08:12;;;;;;;;;8.00;8.00;;;;;20.48;31.98;103182.47;4993573;28;47280;-55
2022/01/18 09:10:39;;;;;;;;;7.00;7.00;;;;;20.46;31.88;103178.09;4993494;27;45194;-52
2022/01/18 09:13:05;;;;;;;;;6.50;6.50;;;;;20.45;32.36;103185.13;4993766;28;45353;-52
2022/01/18 09:15:30;;;;;;;;;8.00;6.25;;;;;20.44;32.03;103186.03;4993825;28;45485;-54
2022/01/18 09:17:56;;;;;;;;;7.50;7.25;;;;;20.43;32.07;103183.44;4993618;28;45727;-56
2022/01/18 09:20:23;;;;;;;;;9.00;8.00;;;;;20.42;32.60;103184.31;4993573;27;45379;-49
2022/01/18 09:22:49;;;;;;;;;8.00;8.00;;;;;20.41;32.03;103183.44;4993548;28;45354;-55
2022/01/18 09:25:21;;;;;;;;;6.00;6.00;;;;;20.39;32.38;103174.72;4994153;28;45264;-56
2022/01/18 09:27:47;;;;;;;;;5.50;5.50;;;;;20.38;32.28;103180.88;4975705;28;47501;-49
2022/01/18 09:30:14;;;;;;;;;8.50;7.00;;;;;20.37;32.08;103174.72;4993560;28;45391;-50
2022/01/18 09:32:40;;;;;;;;;9.75;7.50;;;;;20.35;32.20;103176.50;4975972;28;45405;-57
2022/01/18 09:35:08;;;;;;;;;6.50;6.50;;;;;20.37;31.96;103180.00;4993586;28;45549;-56
2022/01/18 09:37:34;;;;;;;;;10.00;6.75;;;;;20.35;32.54;103176.50;4993034;28;46101;-55
2022/01/18 09:39:59;;;;;;;;;7.50;6.00;;;;;20.36;32.58;103178.25;4993185;27;45417;-57
2022/01/18 09:42:34;;;;;;;;;6.50;6.00;;;;;20.41;32.71;103185.22;4975686;28;45449;-57
2022/01/18 09:45:14;;;;;;;;;6.50;6.25;;;;;20.44;32.51;103182.53;4994926;28;45494;-52
2022/01/18 09:47:43;;;;;;;;;6.75;6.75;;;;;20.46;32.30;103171.06;4993087;28;46430;-53
2022/01/18 09:50:12;;;;;;;;;8.75;7.50;;;;;20.50;32.15;103180.66;4975702;28;45321;-56
2022/01/18 09:52:38;;;;;;;;;7.00;6.75;;;;;20.55;32.19;103178.81;4993156;28;45430;-58
2022/01/18 09:55:07;;;;;;;;;9.75;8.00;;;;;20.59;32.49;103182.25;4975746;28;45536;-54
2022/01/18 09:57:33;;;;;;;;;8.00;7.25;;;;;20.64;32.28;103184.78;4992942;28;46444;-50
2022/01/18 09:59:59;;;;;;;;;10.00;6.00;;;;;20.67;32.60;103188.25;4975253;28;45356;-57
2022/01/18 10:02:25;;;;;;;;;5.00;5.00;;;;;20.70;32.18;103189.97;4993079;28;45466;-49
2022/01/18 10:04:53;;;;;;;;;8.25;6.00;;;;;20.74;32.11;103185.50;4995617;28;45486;-50
2022/01/18 10:07:30;;;;;;;;;9.50;6.00;;;;;20.79;32.44;103181.03;4995963;28;46372;-50
2022/01/18 10:10:00;;;;;;;;;6.00;6.00;;;;;20.80;32.14;103186.28;4995701;27;45219;-57
2022/01/18 10:12:25;;;;;;;;;6.00;6.00;;;;;20.81;32.29;103180.13;4996094;28;45395;-58
2022/01/18 10:14:57;;;;;;;;;7.75;7.75;;;;;20.84;32.22;103174.78;4996037;28;45472;-58
2022/01/18 10:17:34;;;;;;;;;6.25;5.00;;;;;20.85;32.40;103180.94;4995865;28;46359;-57
2022/01/18 10:20:14;;;;;;;;;6.75;6.75;;;;;20.87;32.11;103168.59;4995646;28;46004;-57
2022/01/18 10:22:44;;;;;;;;;5.50;5.50;;;;;20.88;31.91;103175.59;4978333;28;45314;-57
2022/01/18 10:25:18;;;;;;;;;5.50;5.50;;;;;20.89;32.27;103172.03;4996338;28;46183;-57
2022/01/18 10:27:47;;;;;;;;;8.50;7.00;;;;;20.91;32.23;103174.66;4995662;28;46776;-55
2022/01/18 10:30:20;;;;;;;;;7.00;7.00;;;;;20.91;32.06;103172.88;4995640;28;45269;-55
2022/01/18 10:33:07;;;;;;;;;6.00;6.00;;;;;20.91;32.26;103164.97;4996383;28;45402;-52
2022/01/18 10:35:32;;;;;;;;;8.00;8.00;;;;;20.91;32.44;103159.72;4978485;28;45434;-55
2022/01/18 10:37:57;;;;;;;;;9.50;7.75;;;;;20.91;31.97;103154.44;4995398;27;45386;-57
2022/01/18 10:40:26;;;;;;;;;6.00;6.00;;;;;20.91;31.93;103146.53;4995535;28;45511;-53
2022/01/18 10:42:53;;;;;;;;;6.00;5.00;;;;;20.92;32.37;103144.78;4995709;28;45341;-51
2022/01/18 10:45:30;;;;;;;;;7.25;6.00;;;;;20.93;32.38;103130.69;4996105;28;45540;-51
2022/01/18 10:47:59;;;;;;;;;5.50;5.00;;;;;20.92;31.88;103129.81;4995482;28;46400;-53
2022/01/18 10:50:30;;;;;;;;;8.00;6.75;;;;;20.93;32.23;103130.69;4995300;28;45422;-52
2022/01/18 10:53:20;;;;;;;;;7.75;6.00;;;;;20.92;32.05;103128.97;4995668;28;45441;-55
2022/01/18 10:55:47;;;;;;;;;8.25;7.25;;;;;20.90;32.03;103110.53;4995799;28;45166;-48
2022/01/18 10:58:20;;;;;;;;;9.50;7.25;;;;;20.91;32.04;103112.25;4995137;28;45483;-48
2022/01/18 11:00:46;;;;;;;;;8.00;7.25;;;;;20.90;31.99;103113.16;4995672;28;45286;-53
2022/01/18 11:03:12;;;;;;;;;7.00;6.25;;;;;20.88;32.20;103104.44;4977702;28;45311;-55
2022/01/18 11:05:39;;;;;;;;;8.00;6.50;;;;;20.88;32.12;103101.81;4995443;28;45282;-58
2022/01/18 11:08:06;;;;;;;;;8.25;7.00;;;;;20.86;31.99;103103.59;4995029;27;46677;-54
2022/01/18 11:10:37;;;;;;;;;8.75;6.50;;;;;20.84;32.09;103086.94;4995323;27;45845;-55
2022/01/18 11:13:11;;;;;;;;;7.50;7.50;;;;;20.83;31.80;103087.84;4995429;28;45299;-54
2022/01/18 11:15:41;;;;;;;;;6.50;6.50;;;;;20.84;32.43;103084.31;4994843;28;45338;-55
2022/01/18 11:18:15;;;;;;;;;7.00;5.75;;;;;20.83;31.93;103085.19;4994759;28;46218;-58
2022/01/18 11:20:44;;;;;;;;;8.00;8.00;;;;;20.82;32.43;103086.09;4994895;28;45911;-53
2022/01/18 11:23:11;;;;;;;;;7.00;6.00;;;;;20.82;31.82;103078.19;4977444;28;45415;-58
2022/01/18 11:25:38;;;;;;;;;6.75;5.50;;;;;20.79;31.98;103068.59;4995216;27;45389;-53
2022/01/18 11:28:07;;;;;;;;;6.50;6.50;;;;;20.76;31.76;103054.63;4994802;27;46312;-58
2022/01/18 11:30:36;;;;;;;;;7.00;7.00;;;;;20.79;31.87;103054.53;4994886;28;45427;-54
2022/01/18 11:33:05;;;;;;;;;8.00;6.00;;;;;20.75;32.05;103043.19;4994825;28;45417;-56
2022/01/18 11:35:54;;;;;;;;;6.00;5.00;;;;;20.75;32.24;103040.56;4995133;28;45446;-58
2022/01/18 11:38:37;;;;;;;;;7.00;6.75;;;;;20.75;31.91;103035.28;4995114;28;45399;-55
2022/01/18 11:41:03;;;;;;;;;5.00;5.00;;;;;20.74;32.00;103024.75;4977128;28;45866;-57
2022/01/18 11:43:37;;;;;;;;;7.00;6.50;;;;;20.73;32.17;103023.00;4994960;28;45541;-51
2022/01/18 11:46:21;;;;;;;;;9.00;7.00;;;;;20.72;32.11;103026.53;4977406;28;45278;-55
2022/01/18 11:48:48;;;;;;;;;6.25;6.00;;;;;20.68;32.31;103015.22;4994424;28;45464;-56
2022/01/18 11:51:17;;;;;;;;;6.00;6.00;;;;;20.68;32.48;103021.34;4994655;28;45958;-56
2022/01/18 11:56:36;;;;;;;;;9.00;6.25;;;;;20.66;32.00;103017.00;4994882;28;45343;-57
2022/01/18 11:59:39;;;;;;;;;3.00;2.25;;;;;20.64;32.48;103003.88;4994431;28;45464;-51
2022/01/18 12:02:05;;;;;;;;;8.50;6.00;;;;;20.63;32.30;103002.13;4995154;28;45412;-53
2022/01/18 12:07:39;;;;;;;;;8.75;8.00;;;;;20.62;32.45;102999.50;4994703;28;45343;-52
2022/01/18 12:10:07;;;;;;;;;11.50;7.00;;;;;20.60;32.11;102996.91;4994321;28;45532;-52
2022/01/18 12:12:41;;;;;;;;;6.25;6.25;;;;;20.60;32.19;102983.75;4994191;28;45874;-53
2022/01/18 12:15:15;;;;;;;;;7.75;6.50;;;;;20.61;32.55;102985.50;5024029;27;45657;-54
2022/01/18 12:18:10;;;;;;;;;7.25;6.00;;;;;20.61;31.99;102972.31;5038998;27;45461;-55
2022/01/18 12:20:35;;;;;;;;;5.75;5.50;;;;;20.61;32.21;102967.03;5002013;27;45658;-55
2022/01/18 12:23:06;;;;;;;;;7.00;6.00;;;;;20.64;32.14;102968.72;4995210;28;45477;-56
2022/01/18 12:25:35;;;;;;;;;9.25;6.00;;;;;20.66;31.97;102970.47;4993471;27;45384;-56
2022/01/18 12:32:05;;;;;;;;;6.50;4.75;;;;;20.74;32.24;102964.13;5064786;28;45668;-57
2022/01/18 12:34:31;;;;;;;;;7.75;5.75;;;;;20.77;32.11;102953.56;4985866;28;45385;-52
2022/01/18 12:37:11;;;;;;;;;7.00;5.50;;;;;20.80;31.90;102950.84;4987985;28;45407;-56
2022/01/18 12:45:42;;;;;;;;;4.75;4.75;;;;;20.88;31.82;102941.00;5003685;28;45471;-57
2022/01/18 12:48:10;;;;;;;;;5.25;5.25;;;;;20.90;32.13;102936.53;4993368;28;45509;-55
2022/01/18 12:50:38;;;;;;;;;8.50;5.25;;;;;20.93;31.90;102936.47;4993593;27;45548;-57